createdAt,value
2023-02-14T00:01:29.775Z,42.38
2023-02-14T00:04:01.054Z,40.55
2023-02-14T00:06:35.663Z,41.63
2023-02-14T00:09:03.399Z,43.97
2023-02-14T00:11:30.617Z,42.35
2023-02-14T00:14:16.718Z,35.22
2023-02-14T00:16:44.995Z,44.15
2023-02-14T00:19:14.584Z,39.30
2023-02-14T00:21:41.963Z,45.50
2023-02-14T00:24:15.134Z,43.83
2023-02-14T00:26:43.366Z,43.03
2023-02-14T00:29:13.820Z,40.10
2023-02-14T00:31:42.219Z,39.45
2023-02-14T00:34:10.952Z,42.03
2023-02-14T00:36:39.349Z,36.28
2023-02-14T00:39:08.710Z,37.38
2023-02-14T00:41:36.343Z,39.33
2023-02-14T00:44:03.932Z,39.00
2023-02-14T00:46:31.681Z,36.22
2023-02-14T00:48:59.240Z,35.38
2023-02-14T00:51:26.637Z,36.38
2023-02-14T00:53:54.272Z,42.15
2023-02-14T00:56:21.976Z,43.70
2023-02-14T00:58:49.615Z,42.22
2023-02-14T01:01:18.369Z,35.05
2023-02-14T01:03:45.986Z,41.45
2023-02-14T01:06:16.297Z,38.95
2023-02-14T01:08:43.611Z,39.58
2023-02-14T01:11:18.459Z,35.38
2023-02-14T01:13:46.639Z,44.00
2023-02-14T01:16:17.085Z,37.60
2023-02-14T01:18:44.954Z,40.38
2023-02-14T01:21:14.975Z,39.35
2023-02-14T01:23:43.533Z,34.10
2023-02-14T01:26:11.966Z,42.95
2023-02-14T01:28:40.471Z,38.05
2023-02-14T01:31:23.178Z,32.03
2023-02-14T01:33:51.150Z,36.60
2023-02-14T01:36:30.213Z,46.08
2023-02-14T01:38:59.801Z,37.28
2023-02-14T01:41:29.979Z,42.90
2023-02-14T01:44:03.535Z,38.35
2023-02-14T01:46:33.490Z,41.40
2023-02-14T01:49:14.879Z,39.38
2023-02-14T01:51:46.526Z,39.28
2023-02-14T01:54:14.081Z,40.85
2023-02-14T01:56:54.672Z,43.83
2023-02-14T01:59:27.527Z,44.47
2023-02-14T02:01:55.013Z,36.38
2023-02-14T02:04:38.365Z,37.30
2023-02-14T02:07:14.997Z,47.42
2023-02-14T02:09:50.921Z,38.80
2023-02-14T02:12:21.579Z,43.22
2023-02-14T02:14:52.564Z,40.92
2023-02-14T02:17:38.525Z,44.13
2023-02-14T02:20:20.955Z,47.75
2023-02-14T02:23:29.916Z,49.22
2023-02-14T02:26:08.701Z,42.40
2023-02-14T02:28:50.728Z,37.60
2023-02-14T02:31:35.277Z,36.72
2023-02-14T02:34:11.475Z,41.70
2023-02-14T02:37:11.053Z,44.60
2023-02-14T02:40:22.352Z,37.53
2023-02-14T02:43:03.932Z,48.08
2023-02-14T02:46:11.498Z,37.47
2023-02-14T02:48:46.874Z,34.00
2023-02-14T02:51:46.360Z,37.90
2023-02-14T02:57:58.751Z,38.15
2023-02-14T03:00:26.618Z,40.28
2023-02-14T03:03:15.477Z,39.67
2023-02-14T03:05:44.047Z,38.17
2023-02-14T03:08:11.333Z,43.85
2023-02-14T03:10:40.406Z,44.60
2023-02-14T03:13:45.107Z,38.38
2023-02-14T03:16:15.611Z,38.60
2023-02-14T03:18:55.817Z,43.13
2023-02-14T03:21:32.551Z,40.60
2023-02-14T03:24:15.686Z,43.40
2023-02-14T03:27:30.574Z,39.72
2023-02-14T03:30:10.504Z,38.97
2023-02-14T03:33:04.264Z,38.97
2023-02-14T03:35:47.978Z,43.67
2023-02-14T03:38:41.769Z,40.22
2023-02-14T03:41:14.222Z,37.40
2023-02-14T03:43:52.792Z,39.47
2023-02-14T03:46:55.321Z,47.28
2023-02-14T03:49:26.823Z,47.78
2023-02-14T03:51:56.408Z,46.10
2023-02-14T03:54:25.878Z,45.28
2023-02-14T03:57:08.998Z,40.42
2023-02-14T03:59:36.498Z,34.10
2023-02-14T04:02:10.027Z,46.97
2023-02-14T04:04:40.866Z,49.08
2023-02-14T04:07:20.170Z,35.53
2023-02-14T04:09:48.746Z,52.97
2023-02-14T04:12:19.849Z,43.67
2023-02-14T04:17:39.293Z,37.58
2023-02-14T04:20:07.179Z,43.17
2023-02-14T04:22:34.429Z,39.55
2023-02-14T04:25:01.732Z,46.42
2023-02-14T04:27:29.252Z,44.17
2023-02-14T04:29:56.502Z,40.78
2023-02-14T04:32:23.816Z,36.83
2023-02-14T04:34:51.110Z,41.35
2023-02-14T04:37:20.101Z,38.13
2023-02-14T04:39:47.534Z,37.55
2023-02-14T04:42:15.324Z,45.75
2023-02-14T04:44:42.699Z,59.65
2023-02-14T04:47:10.484Z,40.03
2023-02-14T04:49:37.678Z,45.83
2023-02-14T04:52:06.269Z,43.05
2023-02-14T04:54:33.666Z,35.72
2023-02-14T04:57:00.950Z,42.13
2023-02-14T04:59:28.644Z,42.05
2023-02-14T05:01:56.036Z,38.33
2023-02-14T05:04:23.547Z,41.97
2023-02-14T05:06:51.162Z,38.33
2023-02-14T05:09:24.861Z,39.72
2023-02-14T05:11:52.565Z,39.15
2023-02-14T05:14:19.720Z,41.22
2023-02-14T05:16:47.645Z,50.67
2023-02-14T05:19:14.899Z,46.55
2023-02-14T05:21:42.116Z,39.92
2023-02-14T05:24:09.283Z,40.78
2023-02-14T05:26:36.765Z,43.90
2023-02-14T05:29:04.132Z,43.22
2023-02-14T05:31:31.472Z,48.22
2023-02-14T05:33:58.753Z,43.30
2023-02-14T05:36:25.985Z,44.05
2023-02-14T05:38:53.298Z,40.03
2023-02-14T05:41:21.319Z,43.72
2023-02-14T05:43:48.446Z,46.60
2023-02-14T05:46:15.954Z,38.55
2023-02-14T05:48:43.327Z,42.38
2023-02-14T05:51:11.298Z,41.33
2023-02-14T05:53:39.245Z,40.85
2023-02-14T05:56:07.134Z,35.78
2023-02-14T05:58:37.814Z,40.55
2023-02-14T06:01:05.288Z,48.22
2023-02-14T06:03:32.566Z,47.88
2023-02-14T06:05:59.753Z,50.85
2023-02-14T06:08:27.514Z,43.13
2023-02-14T06:10:54.718Z,51.40
2023-02-14T06:13:25.353Z,47.28
2023-02-14T06:15:54.994Z,38.58
2023-02-14T06:18:22.443Z,47.28
2023-02-14T06:20:50.108Z,44.53
2023-02-14T06:23:17.897Z,44.20
2023-02-14T06:25:45.025Z,47.67
2023-02-14T06:28:13.477Z,35.40
2023-02-14T06:30:40.862Z,39.20
2023-02-14T06:33:08.108Z,45.95
2023-02-14T06:35:35.396Z,54.97
2023-02-14T06:38:02.686Z,39.67
2023-02-14T06:40:32.967Z,46.55
2023-02-14T06:43:00.124Z,43.22
2023-02-14T06:45:27.406Z,41.42
2023-02-14T06:47:54.585Z,42.85
2023-02-14T06:50:26.973Z,40.65
2023-02-14T06:52:54.328Z,50.17
2023-02-14T06:55:21.604Z,42.75
2023-02-14T06:57:48.969Z,53.25
2023-02-14T07:00:16.566Z,40.67
2023-02-14T07:02:43.937Z,40.85
2023-02-14T07:05:11.340Z,38.13
2023-02-14T07:07:38.712Z,45.92
2023-02-14T07:10:06.599Z,47.00
2023-02-14T07:12:37.145Z,40.40
2023-02-14T07:15:07.651Z,39.45
2023-02-14T07:17:35.344Z,45.35
2023-02-14T07:20:02.984Z,43.60
2023-02-14T07:22:30.549Z,39.38
2023-02-14T07:25:00.401Z,43.08
2023-02-14T07:27:27.698Z,40.75
2023-02-14T07:29:55.842Z,40.60
2023-02-14T07:32:23.887Z,47.17
2023-02-14T07:34:53.587Z,45.38
2023-02-14T07:37:21.477Z,43.20
2023-02-14T07:39:49.235Z,40.63
2023-02-14T07:42:16.978Z,39.78
2023-02-14T07:44:45.930Z,41.25
2023-02-14T07:47:13.834Z,44.10
2023-02-14T07:49:41.223Z,43.28
2023-02-14T07:52:08.892Z,44.00
2023-02-14T07:54:36.305Z,41.92
2023-02-14T07:57:03.632Z,49.83
2023-02-14T07:59:30.911Z,43.47
2023-02-14T08:01:58.467Z,47.40
2023-02-14T08:04:26.366Z,38.10
2023-02-14T08:06:57.268Z,43.22
2023-02-14T08:09:27.559Z,47.90
2023-02-14T08:12:14.829Z,49.78
2023-02-14T08:14:43.363Z,46.80
2023-02-14T08:17:13.781Z,46.92
2023-02-14T08:19:41.314Z,44.50
2023-02-14T08:22:08.925Z,39.38
2023-02-14T08:24:36.362Z,45.67
2023-02-14T08:27:04.534Z,51.75
2023-02-14T08:29:31.852Z,44.38
2023-02-14T08:32:00.766Z,43.95
2023-02-14T08:34:28.130Z,48.05
2023-02-14T08:36:55.430Z,44.63
2023-02-14T08:39:22.665Z,47.05
2023-02-14T08:41:49.949Z,48.55
2023-02-14T08:44:17.165Z,51.22
2023-02-14T08:46:45.608Z,46.30
2023-02-14T08:49:12.878Z,43.45
2023-02-14T08:51:40.189Z,47.72
2023-02-14T08:54:07.402Z,44.58
2023-02-14T08:56:35.626Z,40.85
2023-02-14T08:59:02.778Z,43.92
2023-02-14T09:01:30.289Z,39.60
2023-02-14T09:04:02.250Z,38.13
2023-02-14T09:06:29.763Z,38.28
2023-02-14T09:08:57.107Z,43.88
2023-02-14T09:11:25.465Z,38.55
2023-02-14T09:13:53.558Z,38.40
2023-02-14T09:16:22.778Z,29.48
2023-02-14T09:18:50.329Z,31.40
2023-02-14T09:21:19.969Z,34.25
2023-02-14T09:23:47.364Z,34.05
2023-02-14T09:26:18.363Z,28.50
2023-02-14T09:28:46.082Z,27.90
2023-02-14T09:31:14.849Z,32.58
2023-02-14T09:34:02.033Z,27.40
2023-02-14T09:36:29.101Z,35.70
2023-02-14T09:38:56.568Z,26.83
2023-02-14T09:41:29.971Z,32.10
2023-02-14T09:44:17.228Z,31.40
2023-02-14T09:46:50.919Z,29.17
2023-02-14T09:49:25.184Z,22.35
2023-02-14T09:51:53.866Z,29.63
2023-02-14T09:54:26.879Z,29.85
2023-02-14T09:57:24.587Z,26.95
2023-02-14T10:00:03.709Z,26.95
2023-02-14T10:02:49.215Z,31.17
2023-02-14T10:05:27.064Z,27.02
2023-02-14T10:07:57.822Z,27.10
2023-02-14T10:10:27.687Z,25.52
2023-02-14T10:13:07.026Z,29.83
2023-02-14T10:15:42.481Z,28.58
2023-02-14T10:18:22.777Z,22.92
2023-02-14T10:21:02.242Z,24.88
2023-02-14T10:23:35.445Z,25.73
2023-02-14T10:26:06.781Z,30.70
2023-02-14T10:28:52.430Z,25.00
2023-02-14T10:31:37.753Z,29.63
2023-02-14T10:34:09.391Z,26.70
2023-02-14T10:37:14.126Z,26.98
2023-02-14T10:40:02.323Z,32.65
2023-02-14T10:43:13.324Z,26.30
2023-02-14T10:46:03.953Z,32.22
2023-02-14T10:48:53.733Z,30.38
2023-02-14T10:51:34.085Z,33.00
2023-02-14T10:54:17.299Z,29.45
2023-02-14T10:56:52.255Z,27.23
2023-02-14T10:59:26.294Z,28.02
2023-02-14T11:01:55.500Z,25.10
2023-02-14T11:04:25.419Z,35.97
2023-02-14T11:06:54.077Z,26.63
2023-02-14T11:09:21.704Z,29.40
2023-02-14T11:11:57.669Z,30.95
2023-02-14T11:14:32.691Z,27.15
2023-02-14T11:17:01.370Z,26.42
2023-02-14T11:19:37.343Z,28.55
2023-02-14T11:22:05.069Z,28.30
2023-02-14T11:24:35.242Z,26.23
2023-02-14T11:27:08.348Z,30.25
2023-02-14T11:29:55.920Z,27.83
2023-02-14T11:32:31.870Z,25.70
2023-02-14T11:35:04.207Z,27.73
2023-02-14T11:37:44.136Z,25.45
2023-02-14T11:40:28.287Z,30.30
2023-02-14T11:43:13.517Z,26.50
2023-02-14T11:45:44.753Z,27.17
2023-02-14T11:48:31.485Z,27.20
2023-02-14T11:51:15.478Z,21.08
2023-02-14T11:53:52.555Z,24.25
2023-02-14T11:56:22.384Z,32.85
2023-02-14T11:58:55.989Z,28.73
2023-02-14T12:01:31.742Z,24.52
2023-02-14T12:04:03.638Z,26.33
2023-02-14T12:06:34.274Z,27.85
2023-02-14T12:09:23.543Z,28.75
2023-02-14T12:12:05.258Z,28.55
2023-02-14T12:14:35.809Z,28.90
2023-02-14T12:17:06.074Z,26.20
2023-02-14T12:19:56.087Z,26.73
2023-02-14T12:22:30.215Z,30.00
2023-02-14T12:25:10.539Z,24.45
2023-02-14T12:27:57.344Z,24.60
2023-02-14T12:30:27.356Z,27.52
2023-02-14T12:32:56.869Z,29.40
2023-02-14T12:35:59.992Z,24.63
2023-02-14T12:38:49.144Z,24.05
2023-02-14T12:41:28.490Z,24.92
2023-02-14T12:44:19.803Z,27.98
2023-02-14T12:47:15.332Z,30.15
2023-02-14T12:49:58.689Z,25.90
2023-02-14T12:52:50.631Z,26.40
2023-02-14T12:55:36.515Z,26.42
2023-02-14T12:58:34.005Z,26.50
2023-02-14T13:01:46.486Z,25.13
2023-02-14T13:04:31.107Z,24.98
2023-02-14T13:07:11.916Z,29.90
2023-02-14T13:10:00.051Z,25.58
2023-02-14T13:13:01.845Z,24.70
2023-02-14T13:15:45.721Z,26.58
2023-02-14T13:18:32.752Z,29.52
2023-02-14T13:21:03.701Z,26.23
2023-02-14T13:23:39.858Z,26.50
2023-02-14T13:26:18.197Z,26.52
2023-02-14T13:29:01.578Z,23.15
2023-02-14T13:31:29.073Z,25.02
2023-02-14T13:34:14.843Z,24.38
2023-02-14T13:39:21.534Z,23.70
2023-02-14T13:41:48.938Z,25.67
2023-02-14T13:44:39.065Z,26.05
2023-02-14T13:47:08.243Z,26.05
2023-02-14T13:49:39.049Z,30.58
2023-02-14T13:52:06.900Z,27.10
2023-02-14T13:54:36.190Z,27.30
2023-02-14T13:57:38.532Z,23.98
2023-02-14T14:00:21.988Z,25.70
2023-02-14T14:02:55.015Z,23.60
2023-02-14T14:05:35.678Z,21.70
2023-02-14T14:08:21.416Z,29.52
2023-02-14T14:13:43.180Z,29.60
2023-02-14T14:16:28.605Z,30.75
2023-02-14T14:18:59.489Z,27.20
2023-02-14T14:21:30.847Z,25.40
2023-02-14T14:24:15.111Z,24.38
2023-02-14T14:26:50.306Z,19.20
2023-02-14T14:29:26.081Z,24.30
2023-02-14T14:31:56.593Z,25.65
2023-02-14T14:34:27.003Z,21.58
2023-02-14T14:37:15.528Z,24.38
2023-02-14T14:39:42.908Z,24.35
2023-02-14T14:42:17.289Z,25.73
2023-02-14T14:44:54.956Z,29.63
2023-02-14T14:47:28.873Z,31.05
2023-02-14T14:50:04.405Z,25.85
2023-02-14T14:55:07.161Z,27.30
2023-02-14T14:57:37.025Z,32.67
2023-02-14T15:00:27.764Z,23.05
2023-02-14T15:02:59.822Z,24.13
2023-02-14T15:05:34.905Z,25.02
2023-02-14T15:08:35.769Z,25.08
2023-02-14T15:11:39.867Z,28.60
2023-02-14T15:14:11.174Z,24.55
2023-02-14T15:17:01.777Z,25.75
2023-02-14T15:19:45.803Z,28.88
2023-02-14T15:22:42.324Z,27.75
2023-02-14T15:25:13.175Z,25.45
2023-02-14T15:27:43.157Z,23.50
2023-02-14T15:30:35.299Z,27.27
2023-02-14T15:33:03.953Z,33.72
2023-02-14T15:35:39.360Z,28.00
2023-02-14T15:38:10.549Z,27.92
2023-02-14T15:40:39.066Z,25.83
2023-02-14T15:43:25.375Z,27.35
2023-02-14T15:46:05.924Z,26.10
2023-02-14T15:48:34.813Z,28.95
2023-02-14T15:51:05.173Z,30.40
2023-02-14T15:53:58.623Z,26.55
2023-02-14T15:56:31.861Z,32.67
2023-02-14T15:59:07.441Z,28.80
2023-02-14T16:01:37.139Z,28.77
2023-02-14T16:04:07.221Z,30.10
2023-02-14T16:06:39.291Z,28.98
2023-02-14T16:09:27.102Z,28.52
2023-02-14T16:11:54.599Z,30.95
2023-02-14T16:14:32.633Z,28.25
2023-02-14T16:17:11.241Z,33.03
2023-02-14T16:19:43.828Z,26.98
2023-02-14T16:22:13.515Z,30.83
2023-02-14T16:24:42.319Z,35.63
2023-02-14T16:27:10.003Z,27.45
2023-02-14T16:29:37.364Z,26.20
2023-02-14T16:32:20.442Z,31.45
2023-02-14T16:34:48.606Z,31.13
2023-02-14T16:37:25.088Z,27.83
2023-02-14T16:39:57.837Z,26.77
2023-02-14T16:42:25.813Z,25.88
2023-02-14T16:44:53.282Z,27.88
2023-02-14T16:47:21.681Z,33.40
2023-02-14T16:49:50.964Z,30.52
2023-02-14T16:52:26.372Z,30.30
2023-02-14T16:54:53.755Z,27.48
2023-02-14T16:57:28.222Z,26.15
2023-02-14T16:59:57.009Z,31.25
2023-02-14T17:02:28.684Z,35.80
2023-02-14T17:04:56.660Z,27.27
2023-02-14T17:07:24.125Z,30.95
2023-02-14T17:09:56.341Z,34.05
2023-02-14T17:12:29.723Z,30.42
2023-02-14T17:15:02.523Z,27.05
2023-02-14T17:17:30.713Z,31.05
2023-02-14T17:19:58.201Z,32.40
2023-02-14T17:22:25.505Z,29.60
2023-02-14T17:24:55.123Z,33.78
2023-02-14T17:27:24.008Z,30.33
2023-02-14T17:29:52.302Z,33.22
2023-02-14T17:32:19.640Z,32.15
2023-02-14T17:34:47.025Z,31.13
2023-02-14T17:37:14.202Z,63.00
2023-02-14T17:39:41.378Z,106.22
2023-02-14T17:42:11.022Z,72.95
2023-02-14T17:44:40.220Z,50.65
2023-02-14T17:47:07.482Z,37.08
2023-02-14T17:49:34.709Z,39.72
2023-02-14T17:52:03.043Z,29.55
2023-02-14T17:54:37.475Z,39.33
2023-02-14T17:57:05.152Z,37.10
2023-02-14T17:59:33.233Z,32.67
2023-02-14T18:02:00.670Z,39.20
2023-02-14T18:04:30.429Z,37.38
2023-02-14T18:06:57.632Z,33.05
2023-02-14T18:09:26.067Z,30.42
2023-02-14T18:11:53.308Z,25.55
2023-02-14T18:14:20.722Z,31.30
2023-02-14T18:16:48.539Z,54.83
2023-02-14T18:19:19.209Z,38.70
2023-02-14T18:21:46.535Z,30.90
2023-02-14T18:24:15.833Z,25.52
2023-02-14T18:26:45.905Z,34.88
2023-02-14T18:29:13.808Z,28.02
2023-02-14T18:31:43.573Z,29.80
2023-02-14T18:34:11.372Z,33.67
2023-02-14T18:36:41.419Z,37.80
2023-02-14T18:39:10.796Z,31.55
2023-02-14T18:41:38.102Z,35.45
2023-02-14T18:44:06.304Z,32.58
2023-02-14T18:46:35.981Z,33.92
2023-02-14T18:49:08.755Z,29.20
2023-02-14T18:51:39.482Z,41.25
2023-02-14T18:54:07.639Z,23.70
2023-02-14T18:56:37.401Z,35.17
2023-02-14T18:59:09.998Z,33.28
2023-02-14T19:01:42.370Z,31.83
2023-02-14T19:04:12.472Z,30.88
2023-02-14T19:06:41.683Z,30.45
2023-02-14T19:09:14.157Z,30.40
2023-02-14T19:11:41.762Z,31.08
2023-02-14T19:14:10.554Z,30.80
2023-02-14T19:16:43.586Z,34.30
2023-02-14T19:19:11.819Z,35.97
2023-02-14T19:21:39.307Z,29.30
2023-02-14T19:24:07.521Z,33.10
2023-02-14T19:26:40.869Z,33.20
2023-02-14T19:29:15.239Z,33.47
2023-02-14T19:31:45.877Z,32.97
2023-02-14T19:34:19.536Z,31.45
2023-02-14T19:36:47.967Z,35.25
2023-02-14T19:39:16.120Z,32.15
2023-02-14T19:41:43.771Z,32.53
2023-02-14T19:44:14.439Z,32.15
2023-02-14T19:46:43.296Z,36.25
2023-02-14T19:49:15.589Z,30.92
2023-02-14T19:51:43.270Z,39.72
2023-02-14T19:54:16.115Z,31.33
2023-02-14T19:56:46.898Z,36.28
2023-02-14T19:59:20.382Z,31.25
2023-02-14T20:01:51.385Z,33.75
2023-02-14T20:04:27.420Z,32.58
2023-02-14T20:06:55.294Z,34.45
2023-02-14T20:09:23.934Z,36.70
2023-02-14T20:11:55.177Z,34.55
2023-02-14T20:14:27.136Z,35.40
2023-02-14T20:16:56.539Z,37.38
2023-02-14T20:19:29.721Z,38.03
2023-02-14T20:21:57.077Z,38.53
2023-02-14T20:24:27.436Z,34.20
2023-02-14T20:26:56.019Z,34.90
2023-02-14T20:29:25.165Z,39.75
2023-02-14T20:31:54.518Z,33.00
2023-02-14T20:34:22.412Z,29.42
2023-02-14T20:36:53.521Z,32.75
2023-02-14T20:39:23.833Z,34.28
2023-02-14T20:41:54.587Z,33.05
2023-02-14T20:44:23.402Z,35.95
2023-02-14T20:46:52.731Z,37.15
2023-02-14T20:49:21.427Z,37.40
2023-02-14T20:51:52.764Z,33.35
2023-02-14T20:54:22.798Z,35.13
2023-02-14T20:56:50.954Z,32.97
2023-02-14T20:59:29.155Z,34.88
2023-02-14T21:01:57.965Z,36.10
2023-02-14T21:04:25.763Z,37.47
2023-02-14T21:06:53.042Z,41.25
2023-02-14T21:09:21.369Z,35.35
2023-02-14T21:11:48.611Z,39.80
2023-02-14T21:14:17.601Z,30.85
2023-02-14T21:16:44.937Z,35.10
2023-02-14T21:19:12.281Z,42.03
2023-02-14T21:21:39.781Z,37.33
2023-02-14T21:24:16.987Z,40.35
2023-02-14T21:26:44.825Z,36.63
2023-02-14T21:29:12.266Z,29.05
2023-02-14T21:31:39.940Z,33.90
2023-02-14T21:34:10.028Z,30.60
2023-02-14T21:36:40.459Z,30.90
2023-02-14T21:39:08.209Z,35.20
2023-02-14T21:41:36.916Z,36.33
2023-02-14T21:44:05.097Z,41.67
2023-02-14T21:46:37.399Z,35.50
2023-02-14T21:49:24.474Z,39.85
2023-02-14T21:51:51.936Z,34.15
2023-02-14T21:54:19.431Z,35.63
2023-02-14T21:56:47.060Z,30.60
2023-02-14T21:59:14.583Z,37.63
2023-02-14T22:01:47.661Z,38.13
2023-02-14T22:04:15.128Z,30.17
2023-02-14T22:06:43.522Z,43.08
2023-02-14T22:09:13.257Z,37.33
2023-02-14T22:11:41.132Z,40.80
2023-02-14T22:14:08.748Z,42.47
2023-02-14T22:16:37.072Z,29.88
2023-02-14T22:19:05.603Z,33.30
2023-02-14T22:21:33.799Z,37.88
2023-02-14T22:24:01.830Z,41.03
2023-02-14T22:26:35.676Z,31.73
2023-02-14T22:29:03.509Z,37.22
2023-02-14T22:31:35.651Z,46.20
2023-02-14T22:34:04.948Z,39.05
2023-02-14T22:36:32.560Z,35.80
2023-02-14T22:39:00.184Z,45.80
2023-02-14T22:41:27.506Z,31.85
2023-02-14T22:43:56.305Z,37.78
2023-02-14T22:46:28.819Z,43.95
2023-02-14T22:48:57.027Z,35.10
2023-02-14T22:51:34.844Z,48.70
2023-02-14T22:54:05.228Z,39.90
2023-02-14T22:56:41.419Z,40.78
2023-02-14T22:59:17.887Z,45.10
2023-02-14T23:01:46.033Z,43.53
2023-02-14T23:04:19.063Z,41.92
2023-02-14T23:06:46.711Z,40.85
2023-02-14T23:09:14.970Z,35.15
2023-02-14T23:11:43.882Z,39.38
2023-02-14T23:14:31.570Z,43.28
2023-02-14T23:17:25.390Z,37.85
2023-02-14T23:20:11.653Z,35.85
2023-02-14T23:22:41.193Z,36.70
2023-02-14T23:25:11.890Z,40.78
2023-02-14T23:27:43.590Z,41.90
2023-02-14T23:30:14.602Z,37.38
2023-02-14T23:32:42.632Z,46.08
2023-02-14T23:35:11.296Z,47.47
2023-02-14T23:37:38.635Z,34.70
2023-02-14T23:40:08.766Z,39.70
2023-02-14T23:42:35.882Z,41.97
2023-02-14T23:45:21.545Z,40.08
2023-02-14T23:47:48.901Z,46.00
2023-02-14T23:50:16.469Z,49.92
2023-02-14T23:52:44.826Z,47.13
2023-02-14T23:55:12.844Z,46.47
2023-02-14T23:57:40.449Z,47.97
